createdAt,value
2018-09-01T00:00:41.528Z,76.24
2018-09-01T00:01:48.730Z,75.71
2018-09-01T00:02:55.180Z,74.92
2018-09-01T00:04:01.470Z,75.24
2018-09-01T00:05:08.669Z,75.86
2018-09-01T00:06:14.980Z,77.45
2018-09-01T00:07:21.166Z,76.40
2018-09-01T00:08:27.713Z,75.40
2018-09-01T00:09:33.798Z,76.05
2018-09-01T00:10:41.073Z,77.27
2018-09-01T00:11:47.150Z,76.41
2018-09-01T00:12:53.145Z,74.58
2018-09-01T00:13:59.599Z,76.33
2018-09-01T00:15:05.306Z,76.39
2018-09-01T00:16:12.633Z,78.31
2018-09-01T00:17:18.708Z,79.33
2018-09-01T00:18:24.959Z,79.32
2018-09-01T00:19:31.243Z,79.53
2018-09-01T00:20:37.383Z,78.51
2018-09-01T00:21:43.471Z,76.69
2018-09-01T00:22:50.025Z,78.24
2018-09-01T00:23:56.508Z,78.75
2018-09-01T00:25:02.873Z,80.97
2018-09-01T00:26:09.108Z,80.84
2018-09-01T00:27:15.457Z,80.90
2018-09-01T00:28:21.777Z,80.70
2018-09-01T00:29:28.105Z,78.62
2018-09-01T00:30:34.390Z,79.13
2018-09-01T00:31:40.985Z,79.52
2018-09-01T00:32:47.318Z,80.03
2018-09-01T00:33:53.331Z,79.39
2018-09-01T00:34:59.663Z,78.26
2018-09-01T00:36:05.352Z,77.83
2018-09-01T00:37:11.826Z,77.89
2018-09-01T00:38:18.094Z,77.90
2018-09-01T00:39:25.350Z,78.26
2018-09-01T00:40:31.615Z,78.03
2018-09-01T00:41:37.988Z,78.05
2018-09-01T00:42:44.465Z,78.75
2018-09-01T00:43:51.918Z,78.15
2018-09-01T00:44:58.153Z,77.98
2018-09-01T00:46:04.558Z,77.87
2018-09-01T00:47:10.981Z,77.43
2018-09-01T00:48:17.333Z,77.28
2018-09-01T00:49:23.627Z,77.01
2018-09-01T00:50:29.928Z,77.68
2018-09-01T00:51:36.234Z,77.78
2018-09-01T00:52:42.691Z,77.70
2018-09-01T00:53:48.968Z,77.30
2018-09-01T00:54:55.316Z,77.46
2018-09-01T00:56:01.764Z,77.29
2018-09-01T00:57:08.121Z,77.04
2018-09-01T00:58:14.548Z,76.60
2018-09-01T00:59:20.677Z,76.40
2018-09-01T01:00:27.095Z,76.39
2018-09-01T01:01:33.265Z,76.92
2018-09-01T01:02:38.140Z,77.03
2018-09-01T01:03:44.467Z,76.68
2018-09-01T01:04:50.855Z,76.90
2018-09-01T01:05:57.289Z,76.43
2018-09-01T01:07:03.691Z,76.81
2018-09-01T01:08:09.738Z,76.73
2018-09-01T01:09:16.023Z,75.96
2018-09-01T01:10:23.363Z,75.10
2018-09-01T01:11:29.755Z,75.27
2018-09-01T01:12:35.993Z,74.99
2018-09-01T01:13:42.107Z,75.02
2018-09-01T01:14:48.484Z,75.17
2018-09-01T01:15:54.589Z,75.84
2018-09-01T01:17:00.689Z,76.05
2018-09-01T01:18:06.840Z,76.03
2018-09-01T01:19:13.120Z,76.32
2018-09-01T01:20:19.428Z,75.71
2018-09-01T01:21:25.525Z,75.55
2018-09-01T01:22:32.612Z,75.45
2018-09-01T01:23:38.818Z,74.85
2018-09-01T01:24:45.915Z,75.02
2018-09-01T01:25:52.029Z,75.13
2018-09-01T01:26:58.325Z,75.63
2018-09-01T01:28:04.864Z,75.68
2018-09-01T01:29:10.876Z,75.77
2018-09-01T01:30:16.899Z,76.15
2018-09-01T01:31:23.855Z,76.14
2018-09-01T01:32:31.144Z,75.84
2018-09-01T01:33:36.864Z,75.59
2018-09-01T01:34:43.273Z,75.93
2018-09-01T01:35:49.629Z,76.06
2018-09-01T01:36:55.999Z,76.54
2018-09-01T01:38:02.325Z,76.94
2018-09-01T01:39:08.518Z,77.07
2018-09-01T01:40:14.791Z,76.92
2018-09-01T01:41:21.100Z,76.72
2018-09-01T01:42:27.356Z,77.17
2018-09-01T01:43:33.702Z,76.51
2018-09-01T01:44:40.967Z,76.33
2018-09-01T01:45:46.571Z,76.86
2018-09-01T01:46:52.622Z,77.90
2018-09-01T01:47:59.006Z,77.98
2018-09-01T01:49:04.739Z,77.35
2018-09-01T01:50:11.907Z,77.44
2018-09-01T01:51:18.312Z,77.74
2018-09-01T01:52:24.692Z,77.47
2018-09-01T01:53:30.861Z,76.59
2018-09-01T01:54:37.978Z,76.33
2018-09-01T01:55:44.050Z,76.71
2018-09-01T01:56:50.501Z,76.76
2018-09-01T01:57:56.799Z,77.08
2018-09-01T01:59:03.243Z,77.42
2018-09-01T02:00:09.521Z,77.40
2018-09-01T02:01:15.845Z,78.10
2018-09-01T02:02:21.908Z,77.73
2018-09-01T02:03:27.992Z,78.13
2018-09-01T02:04:33.949Z,78.36
2018-09-01T02:05:39.992Z,78.50
2018-09-01T02:06:46.092Z,78.46
2018-09-01T02:07:52.434Z,78.20
2018-09-01T02:08:58.771Z,78.38
2018-09-01T02:10:04.420Z,78.53
2018-09-01T02:11:10.815Z,78.63
2018-09-01T02:12:17.228Z,78.75
2018-09-01T02:13:23.536Z,79.10
2018-09-01T02:14:29.990Z,79.47
2018-09-01T02:15:36.302Z,79.60
2018-09-01T02:16:42.549Z,78.96
2018-09-01T02:17:48.873Z,78.41
2018-09-01T02:18:55.298Z,78.36
2018-09-01T02:20:01.724Z,78.71
2018-09-01T02:21:08.142Z,78.50
2018-09-01T02:22:14.309Z,79.33
2018-09-01T02:23:20.469Z,79.12
2018-09-01T02:24:26.781Z,78.76
2018-09-01T02:25:33.115Z,78.81
2018-09-01T02:26:39.893Z,78.22
2018-09-01T02:27:46.322Z,78.71
2018-09-01T02:28:52.744Z,79.41
2018-09-01T02:29:59.045Z,79.34
2018-09-01T02:31:05.120Z,78.84
2018-09-01T02:32:11.198Z,78.17
2018-09-01T02:33:17.581Z,79.24
2018-09-01T02:34:23.971Z,79.57
2018-09-01T02:35:30.122Z,79.07
2018-09-01T02:36:36.405Z,79.38
2018-09-01T02:37:42.756Z,78.50
2018-09-01T02:38:49.029Z,78.97
2018-09-01T02:39:55.403Z,78.31
2018-09-01T02:41:01.843Z,78.86
2018-09-01T02:42:22.939Z,79.03
2018-09-01T02:43:29.380Z,79.13
2018-09-01T02:44:35.614Z,79.04
2018-09-01T02:45:41.998Z,78.91
2018-09-01T02:46:48.239Z,79.26
2018-09-01T02:47:54.223Z,79.45
2018-09-01T02:49:00.660Z,80.12
2018-09-01T02:50:06.030Z,80.15
2018-09-01T02:51:12.163Z,79.46
2018-09-01T02:52:18.468Z,79.47
2018-09-01T02:53:24.600Z,79.49
2018-09-01T02:54:31.001Z,80.30
2018-09-01T02:55:37.355Z,80.27
2018-09-01T02:56:43.645Z,80.80
2018-09-01T02:57:50.045Z,80.79
2018-09-01T02:58:56.032Z,81.04
2018-09-01T03:00:03.587Z,81.35
2018-09-01T03:01:10.677Z,79.98
2018-09-01T03:02:16.254Z,80.44
2018-09-01T03:03:22.425Z,80.62
2018-09-01T03:04:28.880Z,80.81
2018-09-01T03:05:35.465Z,81.13
2018-09-01T03:06:41.343Z,81.02
2018-09-01T03:07:47.495Z,80.70
2018-09-01T03:08:53.881Z,81.68
2018-09-01T03:10:00.317Z,81.51
2018-09-01T03:11:06.373Z,81.23
2018-09-01T03:12:12.805Z,81.49
2018-09-01T03:13:18.925Z,81.05
2018-09-01T03:14:24.893Z,81.23
2018-09-01T03:15:31.365Z,80.50
2018-09-01T03:16:37.747Z,80.04
2018-09-01T03:17:44.237Z,80.22
2018-09-01T03:18:50.887Z,80.07
2018-09-01T03:19:56.376Z,80.26
2018-09-01T03:21:02.820Z,80.02
2018-09-01T03:22:09.216Z,80.01
2018-09-01T03:23:15.616Z,79.49
2018-09-01T03:24:22.045Z,79.33
2018-09-01T03:25:28.367Z,79.26
2018-09-01T03:26:34.793Z,79.01
2018-09-01T03:27:41.174Z,79.83
2018-09-01T03:28:47.571Z,79.98
2018-09-01T03:29:54.050Z,80.37
2018-09-01T03:30:59.752Z,80.71
2018-09-01T03:32:06.109Z,80.91
2018-09-01T03:33:12.490Z,80.44
2018-09-01T03:34:18.852Z,80.49
2018-09-01T03:35:25.313Z,80.98
2018-09-01T03:36:31.681Z,81.06
2018-09-01T03:37:39.043Z,80.54
2018-09-01T03:38:46.028Z,80.33
2018-09-01T03:39:52.400Z,79.90
2018-09-01T03:40:58.788Z,79.65
2018-09-01T03:42:05.168Z,80.40
2018-09-01T03:43:12.644Z,81.13
2018-09-01T03:44:19.020Z,80.50
2018-09-01T03:45:25.369Z,80.35
2018-09-01T03:46:31.753Z,80.40
2018-09-01T03:47:38.203Z,80.42
2018-09-01T03:48:44.376Z,80.85
2018-09-01T03:49:50.556Z,81.48
2018-09-01T03:50:56.796Z,80.98
2018-09-01T03:52:03.209Z,81.33
2018-09-01T03:53:09.518Z,81.45
2018-09-01T03:54:16.821Z,81.55
2018-09-01T03:55:23.196Z,82.32
2018-09-01T03:56:29.607Z,82.39
2018-09-01T03:57:36.008Z,82.54
2018-09-01T03:58:42.155Z,82.57
2018-09-01T03:59:48.518Z,83.12
2018-09-01T04:00:54.955Z,82.72
2018-09-01T04:02:01.040Z,82.83
2018-09-01T04:03:07.461Z,82.58
2018-09-01T04:04:13.891Z,83.18
2018-09-01T04:05:20.302Z,83.06
2018-09-01T04:06:26.624Z,83.71
2018-09-01T04:07:33.018Z,83.82
2018-09-01T04:08:39.501Z,84.00
2018-09-01T04:09:45.651Z,83.68
2018-09-01T04:10:51.978Z,83.17
2018-09-01T04:11:58.600Z,83.37
2018-09-01T04:13:04.987Z,84.18
2018-09-01T04:14:11.054Z,84.71
2018-09-01T04:15:17.500Z,84.88
2018-09-01T04:16:24.067Z,84.57
2018-09-01T04:17:30.550Z,85.09
2018-09-01T04:18:36.846Z,84.93
2018-09-01T04:19:43.268Z,84.72
2018-09-01T04:20:49.656Z,84.61
2018-09-01T04:21:56.003Z,84.47
2018-09-01T04:23:03.223Z,84.32
2018-09-01T04:24:09.621Z,84.51
2018-09-01T04:25:15.950Z,84.93
2018-09-01T04:26:22.513Z,85.05
2018-09-01T04:27:28.818Z,85.40
2018-09-01T04:28:35.079Z,85.26
2018-09-01T04:29:41.534Z,85.00
2018-09-01T04:30:48.900Z,84.86
2018-09-01T04:31:55.259Z,85.79
2018-09-01T04:33:01.396Z,86.67
2018-09-01T04:34:07.775Z,85.97
2018-09-01T04:35:14.209Z,85.47
2018-09-01T04:36:20.640Z,84.93
2018-09-01T04:37:27.851Z,84.92
2018-09-01T04:38:34.160Z,85.18
2018-09-01T04:39:40.473Z,85.63
2018-09-01T04:40:46.635Z,85.75
2018-09-01T04:41:53.003Z,85.40
2018-09-01T04:43:08.455Z,85.32
2018-09-01T04:44:14.839Z,85.18
2018-09-01T04:45:21.172Z,85.98
2018-09-01T04:46:27.577Z,85.77
2018-09-01T04:47:33.780Z,85.86
2018-09-01T04:48:40.886Z,85.18
2018-09-01T04:49:47.081Z,84.98
2018-09-01T04:50:56.363Z,85.73
2018-09-01T04:52:03.338Z,86.39
2018-09-01T04:53:09.715Z,86.76
2018-09-01T04:54:16.076Z,87.08
2018-09-01T04:55:22.444Z,87.12
2018-09-01T04:56:28.860Z,87.20
2018-09-01T04:57:35.309Z,87.03
2018-09-01T04:58:41.601Z,86.53
2018-09-01T04:59:47.923Z,86.42
2018-09-01T05:00:54.234Z,86.28
2018-09-01T05:02:00.831Z,86.36
2018-09-01T05:03:06.818Z,86.57
2018-09-01T05:04:13.129Z,86.68
2018-09-01T05:05:19.319Z,86.17
2018-09-01T05:06:25.689Z,85.43
2018-09-01T05:07:31.971Z,84.87
2018-09-01T05:08:39.028Z,85.09
2018-09-01T05:09:45.414Z,84.71
2018-09-01T05:10:51.821Z,84.59
2018-09-01T05:11:58.257Z,84.98
2018-09-01T05:13:04.679Z,84.89
2018-09-01T05:14:11.091Z,84.77
2018-09-01T05:15:19.105Z,85.17
2018-09-01T05:16:26.869Z,85.46
2018-09-01T05:17:33.282Z,85.46
2018-09-01T05:18:40.392Z,85.12
2018-09-01T05:19:46.775Z,85.72
2018-09-01T05:20:54.100Z,86.17
2018-09-01T05:22:01.036Z,86.20
2018-09-01T05:23:07.401Z,85.90
2018-09-01T05:24:13.923Z,84.75
2018-09-01T05:25:20.105Z,84.82
2018-09-01T05:26:26.721Z,85.28
2018-09-01T05:27:32.978Z,85.47
2018-09-01T05:28:39.391Z,85.41
2018-09-01T05:29:45.806Z,85.02
2018-09-01T05:30:52.128Z,84.70
2018-09-01T05:31:58.436Z,85.32
2018-09-01T05:33:04.738Z,85.72
2018-09-01T05:34:10.828Z,86.02
2018-09-01T05:35:18.177Z,86.30
2018-09-01T05:36:25.800Z,86.61
2018-09-01T05:37:32.113Z,87.06
2018-09-01T05:38:40.045Z,87.23
2018-09-01T05:39:53.082Z,86.65
2018-09-01T05:40:59.877Z,87.03
2018-09-01T05:42:05.909Z,87.24
2018-09-01T05:43:11.908Z,86.85
2018-09-01T05:44:19.616Z,86.02
2018-09-01T05:45:25.966Z,84.86
2018-09-01T05:46:32.487Z,84.69
2018-09-01T05:47:39.004Z,85.15
2018-09-01T05:48:45.871Z,85.44
2018-09-01T05:49:54.181Z,85.82
2018-09-01T05:51:00.759Z,85.69
2018-09-01T05:52:07.195Z,84.82
2018-09-01T05:53:15.327Z,84.98
2018-09-01T05:54:21.990Z,85.34
2018-09-01T05:55:29.021Z,84.53
2018-09-01T05:56:35.844Z,84.01
2018-09-01T05:57:43.198Z,84.02
2018-09-01T05:58:49.594Z,84.22
2018-09-01T05:59:56.381Z,83.56
2018-09-01T06:01:02.939Z,83.48
2018-09-01T06:02:09.426Z,84.54
2018-09-01T06:03:15.845Z,85.24
2018-09-01T06:04:22.257Z,85.58
2018-09-01T06:05:29.617Z,85.49
2018-09-01T06:06:36.330Z,86.04
2018-09-01T06:07:44.195Z,86.20
2018-09-01T06:08:52.526Z,87.50
2018-09-01T06:09:58.940Z,87.09
2018-09-01T06:11:05.982Z,86.36
2018-09-01T06:12:12.387Z,86.91
2018-09-01T06:13:20.819Z,87.33
2018-09-01T06:14:28.011Z,87.59
2018-09-01T06:15:35.840Z,87.62
2018-09-01T06:16:42.998Z,87.61
2018-09-01T06:17:52.025Z,87.75
2018-09-01T06:18:59.935Z,87.40
2018-09-01T06:20:07.187Z,86.68
2018-09-01T06:21:15.764Z,86.31
2018-09-01T06:22:22.561Z,86.55
2018-09-01T06:23:29.131Z,86.99
2018-09-01T06:24:35.608Z,86.79
2018-09-01T06:25:41.982Z,86.60
2018-09-01T06:26:49.033Z,86.33
2018-09-01T06:27:55.403Z,85.34
2018-09-01T06:29:01.777Z,84.62
2018-09-01T06:30:07.304Z,84.75
2018-09-01T06:31:13.690Z,85.09
2018-09-01T06:32:19.557Z,85.42
2018-09-01T06:33:26.860Z,85.45
2018-09-01T06:34:33.993Z,85.51
2018-09-01T06:35:41.610Z,85.01
2018-09-01T06:36:48.706Z,85.43
2018-09-01T06:37:55.484Z,85.25
2018-09-01T06:39:02.081Z,84.65
2018-09-01T06:40:08.209Z,84.75
2018-09-01T06:41:14.313Z,85.13
2018-09-01T06:42:20.992Z,85.12
2018-09-01T06:43:27.761Z,84.89
2018-09-01T06:44:34.249Z,84.23
2018-09-01T06:45:41.101Z,84.04
2018-09-01T06:46:48.232Z,83.66
2018-09-01T06:47:55.016Z,83.92
2018-09-01T06:49:01.553Z,83.78
2018-09-01T06:50:07.353Z,83.13
2018-09-01T06:51:13.891Z,83.62
2018-09-01T06:52:20.493Z,83.93
2018-09-01T06:53:27.231Z,84.25
2018-09-01T06:54:33.952Z,83.42
2018-09-01T06:55:40.567Z,83.51
2018-09-01T06:56:47.298Z,84.63
2018-09-01T06:57:53.810Z,84.64
2018-09-01T06:59:00.248Z,84.11
2018-09-01T07:00:06.020Z,84.69
2018-09-01T07:01:12.732Z,85.17
2018-09-01T07:02:19.373Z,85.41
2018-09-01T07:03:25.981Z,84.96
2018-09-01T07:04:32.804Z,84.84
2018-09-01T07:05:39.527Z,84.66
2018-09-01T07:06:46.350Z,84.43
2018-09-01T07:07:52.232Z,84.44
2018-09-01T07:08:58.354Z,84.84
2018-09-01T07:10:04.665Z,84.74
2018-09-01T07:11:11.305Z,84.22
2018-09-01T07:12:17.947Z,84.44
2018-09-01T07:13:24.223Z,84.17
2018-09-01T07:14:31.181Z,84.77
2018-09-01T07:15:38.180Z,84.72
2018-09-01T07:16:44.706Z,84.64
2018-09-01T07:17:51.592Z,84.60
2018-09-01T07:18:58.035Z,83.40
2018-09-01T07:20:04.429Z,83.53
2018-09-01T07:21:11.068Z,84.11
2018-09-01T07:22:17.950Z,84.22
2018-09-01T07:23:24.715Z,83.84
2018-09-01T07:24:31.539Z,83.84
2018-09-01T07:25:38.778Z,83.98
2018-09-01T07:26:45.390Z,83.63
2018-09-01T07:27:53.234Z,83.40
2018-09-01T07:28:59.858Z,83.77
2018-09-01T07:30:05.796Z,83.34
2018-09-01T07:31:12.840Z,82.79
2018-09-01T07:32:19.410Z,82.68
2018-09-01T07:33:27.050Z,83.35
2018-09-01T07:34:33.971Z,83.10
2018-09-01T07:35:40.599Z,83.40
2018-09-01T07:36:47.382Z,83.42
2018-09-01T07:37:54.866Z,81.81
2018-09-01T07:39:01.601Z,81.31
2018-09-01T07:40:08.230Z,81.94
2018-09-01T07:41:14.406Z,82.14
2018-09-01T07:42:20.814Z,81.89
2018-09-01T07:43:28.873Z,82.05
2018-09-01T07:44:35.021Z,82.12
2018-09-01T07:45:41.597Z,81.69
2018-09-01T07:46:48.830Z,81.79
2018-09-01T07:47:55.450Z,82.03
2018-09-01T07:49:02.063Z,81.74
2018-09-01T07:50:08.104Z,82.02
2018-09-01T07:51:16.329Z,81.54
2018-09-01T07:52:22.738Z,81.67
2018-09-01T07:53:30.213Z,81.31
2018-09-01T07:54:37.265Z,80.55
2018-09-01T07:55:44.238Z,80.56
2018-09-01T07:56:51.173Z,80.63
2018-09-01T07:58:00.209Z,80.63
2018-09-01T07:59:07.269Z,80.78
2018-09-01T08:00:13.939Z,80.64
2018-09-01T08:01:21.953Z,80.29
2018-09-01T08:02:28.419Z,80.16
2018-09-01T08:03:34.861Z,80.00
2018-09-01T08:04:41.183Z,79.79
2018-09-01T08:05:47.499Z,79.58
2018-09-01T08:06:54.058Z,78.59
2018-09-01T08:08:01.041Z,78.16
2018-09-01T08:09:07.916Z,77.94
2018-09-01T08:10:14.454Z,78.06
2018-09-01T08:11:20.893Z,77.83
2018-09-01T08:12:27.263Z,77.48
2018-09-01T08:13:33.730Z,77.58
2018-09-01T08:14:41.454Z,76.66
2018-09-01T08:15:47.940Z,77.38
2018-09-01T08:16:54.132Z,77.71
2018-09-01T08:18:00.569Z,77.07
2018-09-01T08:19:06.822Z,77.06
2018-09-01T08:20:13.242Z,76.51
2018-09-01T08:21:19.623Z,76.79
2018-09-01T08:22:25.975Z,76.68
2018-09-01T08:23:32.167Z,76.71
2018-09-01T08:24:38.456Z,76.93
2018-09-01T08:25:44.521Z,75.98
2018-09-01T08:26:50.916Z,74.84
2018-09-01T08:27:57.404Z,75.33
2018-09-01T08:29:03.807Z,75.78
2018-09-01T08:30:09.741Z,75.98
2018-09-01T08:31:15.817Z,75.56
2018-09-01T08:32:22.231Z,75.32
2018-09-01T08:33:28.652Z,75.93
2018-09-01T08:34:35.079Z,74.96
2018-09-01T08:35:41.398Z,74.01
2018-09-01T08:36:47.606Z,75.06
2018-09-01T08:37:53.870Z,73.12
2018-09-01T08:39:00.200Z,73.37
2018-09-01T08:40:05.973Z,72.50
2018-09-01T08:41:12.545Z,72.85
2018-09-01T08:42:18.916Z,71.25
2018-09-01T08:43:25.254Z,71.22
2018-09-01T08:44:31.679Z,71.40
2018-09-01T08:45:37.969Z,70.35
2018-09-01T08:46:44.110Z,71.19
2018-09-01T08:47:50.477Z,69.78
2018-09-01T08:48:56.658Z,70.82
2018-09-01T08:50:02.997Z,71.21
2018-09-01T08:51:09.315Z,69.27
2018-09-01T08:52:15.675Z,69.51
2018-09-01T08:53:21.937Z,68.06
2018-09-01T08:54:28.289Z,68.10
2018-09-01T08:55:34.667Z,68.10
2018-09-01T08:56:41.169Z,68.14
2018-09-01T08:57:47.382Z,68.41
2018-09-01T08:58:53.727Z,68.25
2018-09-01T09:00:00.166Z,68.61
2018-09-01T09:01:06.542Z,68.59
2018-09-01T09:02:12.874Z,69.80
2018-09-01T09:03:19.100Z,69.48
2018-09-01T09:04:25.456Z,69.29
2018-09-01T09:05:33.060Z,68.70
2018-09-01T09:06:39.597Z,67.03
2018-09-01T09:07:46.013Z,67.76
2018-09-01T09:08:52.524Z,66.10
2018-09-01T09:09:58.704Z,66.18
2018-09-01T09:11:04.404Z,66.32
2018-09-01T09:12:10.770Z,65.87
2018-09-01T09:13:17.083Z,66.75
2018-09-01T09:14:23.516Z,67.09
2018-09-01T09:15:29.841Z,65.47
2018-09-01T09:16:37.216Z,65.48
2018-09-01T09:17:43.908Z,64.78
2018-09-01T09:18:50.305Z,65.22
2018-09-01T09:19:56.679Z,64.89
2018-09-01T09:21:02.913Z,65.77
2018-09-01T09:22:09.225Z,65.39
2018-09-01T09:23:15.520Z,65.31
2018-09-01T09:24:21.872Z,66.18
2018-09-01T09:25:28.144Z,66.65
2018-09-01T09:26:34.576Z,65.66
2018-09-01T09:27:40.908Z,64.74
2018-09-01T09:28:47.308Z,64.92
2018-09-01T09:29:54.174Z,64.51
2018-09-01T09:31:00.936Z,64.88
2018-09-01T09:32:08.032Z,65.04
2018-09-01T09:33:14.408Z,65.33
2018-09-01T09:34:20.973Z,65.91
2018-09-01T09:35:27.689Z,65.72
2018-09-01T09:36:34.049Z,65.17
2018-09-01T09:37:40.484Z,64.74
2018-09-01T09:38:46.860Z,64.01
2018-09-01T09:39:53.929Z,63.70
2018-09-01T09:40:59.998Z,63.64
2018-09-01T09:42:05.316Z,61.40
2018-09-01T09:43:11.716Z,62.29
2018-09-01T09:44:18.116Z,62.53
2018-09-01T09:45:24.586Z,62.92
2018-09-01T09:46:30.878Z,62.83
2018-09-01T09:47:37.290Z,61.20
2018-09-01T09:48:43.693Z,61.07
2018-09-01T09:49:50.141Z,61.56
2018-09-01T09:50:56.540Z,61.27
2018-09-01T09:52:02.851Z,61.04
2018-09-01T09:53:08.857Z,61.00
2018-09-01T09:54:15.226Z,59.99
2018-09-01T09:55:21.680Z,60.70
2018-09-01T09:56:28.095Z,61.09
2018-09-01T09:57:34.393Z,60.96
2018-09-01T09:58:40.272Z,60.90
2018-09-01T09:59:46.681Z,60.84
2018-09-01T10:00:52.917Z,60.80
2018-09-01T10:01:59.322Z,58.20
2018-09-01T10:03:05.751Z,59.23
2018-09-01T10:04:11.894Z,58.39
2018-09-01T10:05:18.423Z,57.06
2018-09-01T10:06:25.082Z,56.39
2018-09-01T10:07:31.396Z,56.37
2018-09-01T10:08:37.822Z,57.09
2018-09-01T10:09:44.273Z,57.80
2018-09-01T10:10:50.524Z,58.55
2018-09-01T10:11:56.963Z,57.33
2018-09-01T10:13:03.305Z,56.94
2018-09-01T10:14:09.348Z,56.55
2018-09-01T10:15:15.908Z,55.99
2018-09-01T10:16:22.310Z,55.20
2018-09-01T10:17:28.644Z,54.55
2018-09-01T10:18:36.503Z,56.10
2018-09-01T10:19:43.749Z,56.57
2018-09-01T10:20:52.000Z,56.94
2018-09-01T10:22:01.100Z,57.43
2018-09-01T10:23:08.373Z,58.31
2018-09-01T10:24:15.725Z,58.10
2018-09-01T10:25:22.435Z,59.36
2018-09-01T10:26:29.070Z,58.51
2018-09-01T10:27:35.456Z,58.27
2018-09-01T10:28:41.904Z,59.74
2018-09-01T10:29:48.315Z,58.13
2018-09-01T10:30:54.606Z,57.30
2018-09-01T10:32:00.925Z,57.59
2018-09-01T10:33:07.324Z,56.87
2018-09-01T10:34:13.707Z,57.79
2018-09-01T10:35:20.187Z,55.66
2018-09-01T10:36:26.457Z,56.21
2018-09-01T10:37:32.919Z,56.40
2018-09-01T10:38:39.113Z,57.31
2018-09-01T10:39:45.433Z,56.12
2018-09-01T10:40:51.564Z,55.82
2018-09-01T10:41:57.843Z,54.33
2018-09-01T10:43:04.119Z,54.85
2018-09-01T10:44:10.424Z,54.81
2018-09-01T10:45:16.899Z,54.82
2018-09-01T10:46:23.856Z,55.12
2018-09-01T10:47:30.514Z,54.62
2018-09-01T10:48:36.884Z,53.19
2018-09-01T10:49:43.342Z,53.67
2018-09-01T10:50:49.880Z,54.63
2018-09-01T10:51:56.262Z,54.40
2018-09-01T10:53:02.653Z,54.86
2018-09-01T10:54:08.986Z,52.74
2018-09-01T10:55:15.393Z,52.89
2018-09-01T10:56:21.754Z,52.52
2018-09-01T10:57:28.013Z,52.22
2018-09-01T10:58:34.480Z,52.13
2018-09-01T10:59:40.886Z,52.18
2018-09-01T11:00:47.445Z,51.24
2018-09-01T11:01:53.813Z,50.71
2018-09-01T11:03:00.206Z,51.24
2018-09-01T11:04:06.769Z,51.33
2018-09-01T11:05:13.136Z,50.55
2018-09-01T11:06:19.692Z,51.44
2018-09-01T11:07:26.096Z,50.86
2018-09-01T11:08:32.375Z,50.78
2018-09-01T11:09:38.807Z,51.17
2018-09-01T11:10:45.328Z,50.71
2018-09-01T11:11:51.363Z,50.38
2018-09-01T11:12:57.837Z,51.46
2018-09-01T11:14:04.254Z,51.37
2018-09-01T11:15:10.678Z,49.88
2018-09-01T11:16:17.137Z,49.96
2018-09-01T11:17:23.477Z,48.15
2018-09-01T11:18:29.790Z,49.32
2018-09-01T11:19:35.973Z,49.11
2018-09-01T11:20:42.131Z,48.93
2018-09-01T11:21:48.621Z,49.64
2018-09-01T11:22:54.940Z,49.09
2018-09-01T11:24:02.321Z,49.88
2018-09-01T11:25:08.383Z,52.19
2018-09-01T11:26:14.720Z,52.53
2018-09-01T11:27:21.068Z,52.17
2018-09-01T11:28:27.341Z,52.18
2018-09-01T11:29:33.686Z,52.90
2018-09-01T11:30:40.499Z,53.71
2018-09-01T11:31:47.079Z,53.27
2018-09-01T11:32:53.640Z,53.33
2018-09-01T11:33:59.397Z,52.53
2018-09-01T11:35:06.084Z,52.36
2018-09-01T11:36:12.436Z,52.14
2018-09-01T11:37:19.619Z,51.87
2018-09-01T11:38:25.815Z,51.51
2018-09-01T11:39:32.188Z,53.05
2018-09-01T11:40:38.638Z,53.63
2018-09-01T11:41:45.012Z,53.74
2018-09-01T11:42:51.527Z,53.30
2018-09-01T11:43:58.194Z,52.44
2018-09-01T11:45:03.911Z,53.74
2018-09-01T11:46:10.344Z,53.86
2018-09-01T11:47:17.444Z,53.55
2018-09-01T11:48:23.752Z,54.09
2018-09-01T11:49:30.779Z,54.11
2018-09-01T11:50:37.175Z,53.76
2018-09-01T11:51:43.648Z,54.00
2018-09-01T11:52:49.997Z,53.30
2018-09-01T11:53:56.291Z,52.39
2018-09-01T11:55:02.601Z,50.87
2018-09-01T11:56:09.078Z,51.29
2018-09-01T11:57:15.436Z,52.70
2018-09-01T11:58:21.872Z,50.43
2018-09-01T11:59:28.475Z,51.67
2018-09-01T12:00:34.900Z,50.50
2018-09-01T12:01:41.126Z,50.70
2018-09-01T12:02:47.573Z,49.66
2018-09-01T12:03:54.004Z,48.12
2018-09-01T12:05:00.460Z,49.80
2018-09-01T12:06:06.918Z,49.23
2018-09-01T12:07:13.613Z,48.72
2018-09-01T12:08:19.903Z,47.23
2018-09-01T12:09:26.375Z,48.31
2018-09-01T12:10:33.685Z,50.25
2018-09-01T12:11:40.232Z,48.89
2018-09-01T12:12:46.908Z,50.26
2018-09-01T12:13:53.199Z,49.72
2018-09-01T12:14:59.688Z,51.05
2018-09-01T12:16:05.955Z,51.27
2018-09-01T12:17:12.312Z,52.18
2018-09-01T12:18:18.619Z,52.72
2018-09-01T12:19:24.706Z,53.41
2018-09-01T12:20:31.212Z,52.16
2018-09-01T12:21:37.596Z,53.13
2018-09-01T12:22:43.984Z,53.27
2018-09-01T12:23:50.390Z,52.75
2018-09-01T12:24:56.815Z,52.93
2018-09-01T12:26:03.272Z,53.02
2018-09-01T12:27:09.675Z,52.86
2018-09-01T12:28:15.784Z,52.88
2018-09-01T12:29:22.061Z,51.41
2018-09-01T12:30:28.833Z,51.49
2018-09-01T12:31:35.243Z,49.11
2018-09-01T12:32:41.532Z,47.07
2018-09-01T12:33:47.951Z,45.77
2018-09-01T12:34:54.815Z,46.15
2018-09-01T12:36:01.266Z,46.69
2018-09-01T12:37:07.486Z,46.66
2018-09-01T12:38:13.913Z,45.11
2018-09-01T12:39:19.958Z,45.82
2018-09-01T12:40:26.450Z,46.71
2018-09-01T12:41:33.445Z,48.55
2018-09-01T12:42:39.885Z,47.37
2018-09-01T12:43:46.268Z,46.34
2018-09-01T12:44:52.840Z,46.59
2018-09-01T12:45:59.255Z,45.24
2018-09-01T12:47:05.758Z,47.08
2018-09-01T12:48:12.568Z,46.77
2018-09-01T12:49:19.065Z,47.56
2018-09-01T12:50:25.482Z,48.14
2018-09-01T12:51:32.124Z,49.94
2018-09-01T12:52:38.520Z,49.67
2018-09-01T12:53:44.890Z,48.88
2018-09-01T12:54:51.227Z,49.67
2018-09-01T12:55:58.353Z,49.67
2018-09-01T12:57:04.818Z,49.95
2018-09-01T12:58:10.992Z,49.86
2018-09-01T12:59:17.181Z,49.59
2018-09-01T13:00:23.647Z,49.30
2018-09-01T13:01:30.367Z,50.26
2018-09-01T13:02:36.553Z,49.04
2018-09-01T13:03:42.983Z,49.02
2018-09-01T13:04:49.284Z,49.43
2018-09-01T13:05:55.583Z,49.24
2018-09-01T13:07:01.843Z,48.78
2018-09-01T13:08:08.347Z,46.41
2018-09-01T13:09:14.916Z,46.02
2018-09-01T13:10:21.387Z,45.10
2018-09-01T13:11:27.458Z,46.21
2018-09-01T13:12:33.453Z,46.19
2018-09-01T13:13:39.501Z,46.68
2018-09-01T13:14:45.988Z,48.04
2018-09-01T13:15:52.305Z,47.47
2018-09-01T13:16:58.629Z,48.10
2018-09-01T13:18:04.916Z,48.54
2018-09-01T13:19:11.339Z,48.19
2018-09-01T13:20:17.757Z,48.55
2018-09-01T13:21:24.043Z,48.49
2018-09-01T13:22:30.610Z,49.13
2018-09-01T13:23:36.924Z,48.17
2018-09-01T13:24:43.307Z,48.06
2018-09-01T13:25:49.671Z,46.97
2018-09-01T13:26:56.161Z,46.54
2018-09-01T13:28:02.532Z,45.81
2018-09-01T13:29:08.995Z,46.15
2018-09-01T13:30:14.939Z,46.99
2018-09-01T13:31:21.406Z,47.40
2018-09-01T13:32:27.837Z,47.63
2018-09-01T13:33:34.137Z,48.08
2018-09-01T13:34:40.281Z,48.96
2018-09-01T13:35:46.703Z,48.28
2018-09-01T13:36:53.313Z,48.92
2018-09-01T13:37:59.591Z,48.00
2018-09-01T13:39:05.362Z,47.77
2018-09-01T13:40:12.017Z,46.47
2018-09-01T13:41:18.648Z,47.47
2018-09-01T13:42:25.042Z,46.09
2018-09-01T13:43:31.438Z,46.35
2018-09-01T13:44:37.842Z,46.74
2018-09-01T13:45:45.437Z,47.46
2018-09-01T13:46:51.938Z,48.34
2018-09-01T13:47:58.342Z,47.52
2018-09-01T13:49:04.508Z,48.17
2018-09-01T13:50:11.702Z,49.28
2018-09-01T13:51:18.094Z,48.43
2018-09-01T13:52:24.513Z,48.46
2018-09-01T13:53:30.892Z,47.62
2018-09-01T13:54:37.311Z,47.91
2018-09-01T13:55:43.725Z,47.24
2018-09-01T13:56:50.149Z,46.82
2018-09-01T13:57:56.694Z,46.97
2018-09-01T13:59:04.924Z,47.82
2018-09-01T14:00:11.878Z,47.14
2018-09-01T14:01:18.289Z,47.56
2018-09-01T14:02:24.689Z,47.61
2018-09-01T14:03:31.109Z,47.97
2018-09-01T14:04:37.619Z,47.13
2018-09-01T14:05:44.076Z,47.66
2018-09-01T14:06:50.434Z,47.90
2018-09-01T14:07:56.962Z,47.32
2018-09-01T14:09:03.449Z,47.75
2018-09-01T14:10:09.907Z,46.66
2018-09-01T14:11:16.306Z,47.23
2018-09-01T14:12:22.699Z,47.34
2018-09-01T14:13:29.164Z,46.96
2018-09-01T14:14:35.667Z,47.18
2018-09-01T14:15:42.233Z,48.83
2018-09-01T14:16:48.662Z,47.83